• Join FlightAware (Why Join?)
  • Login
  • US Flag 
08:23PM EDT


 

Airport Tracker/Info


-or-


 

Live Flight TrackerFlight Track Log ✈ TAM3110 ✈ 11-May-2013 ✈ SBFL / FLN - SBSP / CGH

Flight Track Log - Related Links

Times and Time Zones

All times are in EDT time to prevent confusion due to time zone crossing. See the TAM3110 flight status page for this flight to view local times or setup timezone preferences in your user account.

Time Position Orientation Groundspeed Altitude Reporting Facility
EDT Latitude Longitude Course Direction KTS MPH feet Rate Location/Type
07:35PM -25.9912 -47.7445 23° Northeast  Level Estimated
07:36PM -25.9289 -47.7152 23° Northeast  Level Estimated
07:37PM -25.8666 -47.6859 23° Northeast  Level Estimated
07:38PM -25.8043 -47.6567 23° Northeast  Level Estimated
07:39PM -25.7420 -47.6275 23° Northeast  Level Estimated
07:40PM -25.6797 -47.5984 23° Northeast  Level Estimated
07:41PM -25.6174 -47.5692 23° Northeast  Level Estimated
07:42PM -25.5551 -47.5401 23° Northeast  Level Estimated
07:43PM -25.4928 -47.5111 23° Northeast  Level Estimated
07:44PM -25.4304 -47.4820 23° Northeast  Level Estimated
07:45PM -25.3681 -47.4530 23° Northeast  Level Estimated
07:46PM -25.3058 -47.4240 23° Northeast  Level Estimated
07:47PM -25.2434 -47.3951 23° Northeast  Level Estimated
07:48PM -25.1811 -47.3662 23° Northeast  Level Estimated
07:49PM -25.1187 -47.3373 23° Northeast  Level Estimated
07:50PM -25.0563 -47.3084 23° Northeast  Level Estimated
07:51PM -24.9940 -47.2796 23° Northeast  Level Estimated
07:52PM -24.9316 -47.2508 23° Northeast  Level Estimated
07:53PM -24.8692 -47.2220 23° Northeast  Level Estimated
07:54PM -24.8068 -47.1933 23° Northeast  Level Estimated
07:55PM -24.7444 -47.1646 23° Northeast  Level Estimated
07:56PM -24.6821 -47.1359 23° Northeast  Level Estimated
07:57PM -24.6196 -47.1072 23° Northeast  Level Estimated
07:58PM -24.5572 -47.0786 23° Northeast  Level Estimated
07:59PM -24.4948 -47.0500 23° Northeast  Level Estimated
08:00PM -24.4324 -47.0214 23° Northeast  Level Estimated
08:01PM -24.3700 -46.9929 23° Northeast  Level Estimated
08:02PM -24.3076 -46.9644 23° Northeast  Level Estimated
08:03PM -24.2451 -46.9359 23° Northeast  Level Estimated
08:04PM -24.1827 -46.9075 23° Northeast  Level Estimated
08:05PM -24.1203 -46.8790 23° Northeast  Level Estimated
08:06PM -24.0578 -46.8506 23° Northeast  Level Estimated
08:07PM -23.9953 -46.8223 23° Northeast  Level Estimated
08:08PM -23.9329 -46.7939 23° Northeast  Level Estimated
08:09PM -23.8704 -46.7656 23° Northeast  Level Estimated
08:10PM -23.8079 -46.7373 23° Northeast  Level Estimated
08:11PM -23.7455 -46.7090 22° Northeast  Level Estimated